Time;durP1;ratioP1;P1;durP2;ratioP2;P2;SDS_P1;SDS_P2;PMS_P1;PMS_P2;Temp;Humidity;BMP_temperature;BMP_pressure;BME280_temperature;BME280_humidity;BME280_pressure;Samples;Min_cycle;Max_cycle;Signal;HPM_P1;HPM_P2
2022/11/13 00:02:02;;;;;;;0.73;0.20;;;;;;;10.69;59.66;98739.78;5007820;28;20080;-49
2022/11/13 00:04:46;;;;;;;1.30;0.40;;;;;;;10.67;59.47;98728.66;5007960;28;20034;-47
2022/11/13 00:07:31;;;;;;;0.90;0.30;;;;;;;10.65;59.17;98720.06;5006973;28;20053;-48
2022/11/13 00:10:16;;;;;;;0.40;0.20;;;;;;;10.33;59.00;98680.09;5006771;28;20092;-45
2022/11/13 00:13:00;;;;;;;0.55;0.22;;;;;;;10.11;58.70;98662.09;4990911;28;20050;-47
2022/11/13 00:15:44;;;;;;;1.45;0.30;;;;;;;10.27;59.25;98706.38;5008053;28;20042;-48
2022/11/13 00:18:31;;;;;;;1.75;0.20;;;;;;;10.19;59.82;98709.34;5021216;28;20068;-46
2022/11/13 00:21:17;;;;;;;0.40;0.30;;;;;;;10.11;59.68;98718.38;4992150;28;20058;-46
2022/11/13 00:24:02;;;;;;;1.77;0.22;;;;;;;10.02;60.08;98700.66;4988813;28;20050;-48
2022/11/13 00:26:47;;;;;;;0.20;0.10;;;;;;;9.98;59.67;98718.13;4989811;28;20042;-49
2022/11/13 00:29:31;;;;;;;0.73;0.20;;;;;;;9.89;59.94;98717.72;4993793;28;20053;-47
2022/11/13 00:32:16;;;;;;;1.30;0.38;;;;;;;9.69;60.19;98695.28;5005215;28;20053;-47
2022/11/13 00:35:01;;;;;;;0.52;0.30;;;;;;;9.78;60.12;98713.88;5014692;28;20088;-46
2022/11/13 00:37:45;;;;;;;0.77;0.22;;;;;;;9.59;60.78;98699.22;5015317;28;20064;-46
2022/11/13 00:40:30;;;;;;;1.55;0.40;;;;;;;9.68;60.98;98702.22;5014882;28;20450;-48
2022/11/13 00:43:14;;;;;;;2.25;0.30;;;;;;;9.69;60.42;98722.06;4997985;28;20627;-43
2022/11/13 00:45:58;;;;;;;0.77;0.20;;;;;;;9.79;60.24;98720.72;4996394;28;20057;-48
2022/11/13 00:48:42;;;;;;;1.35;0.22;;;;;;;9.96;59.77;98719.94;5008802;28;20038;-49
2022/11/13 00:51:27;;;;;;;0.13;0.10;;;;;;;10.05;59.47;98727.28;4998522;28;20076;-48
2022/11/13 00:54:11;;;;;;;1.58;0.20;;;;;;;10.01;59.13;98722.31;5014084;28;20037;-46
2022/11/13 00:56:55;;;;;;;1.00;0.30;;;;;;;10.02;59.07;98726.59;5012751;28;20462;-45
2022/11/13 00:59:40;;;;;;;3.08;0.22;;;;;;;9.96;58.38;98719.94;4984252;28;20136;-46
2022/11/13 01:02:24;;;;;;;0.70;0.10;;;;;;;9.97;58.83;98726.81;4989963;28;20072;-46
2022/11/13 01:05:09;;;;;;;0.90;0.85;;;;;;;10.04;59.17;98724.78;5013903;28;20115;-46
2022/11/13 01:07:54;;;;;;;0.32;0.20;;;;;;;10.12;58.85;98727.84;5021798;28;20527;-49
2022/11/13 01:10:42;;;;;;;0.40;0.30;;;;;;;10.16;58.71;98729.41;5015611;28;20080;-45
2022/11/13 01:13:27;;;;;;;0.47;0.30;;;;;;;10.14;58.54;98719.09;5015829;28;20047;-47
2022/11/13 01:16:13;;;;;;;2.78;0.22;;;;;;;10.16;58.81;98726.81;5015751;28;20057;-45
2022/11/13 01:18:57;;;;;;;0.63;0.30;;;;;;;10.24;58.74;98742.03;4995954;28;20540;-46
2022/11/13 01:21:41;;;;;;;1.42;0.50;;;;;;;10.27;59.00;98731.50;4996069;28;20062;-47
2022/11/13 01:24:26;;;;;;;1.13;0.50;;;;;;;10.24;59.20;98727.31;5011132;28;20038;-51
2022/11/13 01:27:12;;;;;;;1.15;0.30;;;;;;;10.28;58.81;98736.63;5001737;28;20505;-50
2022/11/13 01:29:57;;;;;;;2.25;0.40;;;;;;;10.20;58.57;98736.16;5014500;28;20096;-48
2022/11/13 01:32:41;;;;;;;1.42;0.20;;;;;;;10.13;58.90;98722.59;5015668;28;20065;-50
2022/11/13 01:35:25;;;;;;;0.57;0.20;;;;;;;10.12;58.14;98722.66;5014273;28;20060;-46
2022/11/13 01:38:09;;;;;;;2.92;0.30;;;;;;;10.02;58.53;98734.41;5013338;28;20502;-51
2022/11/13 01:40:54;;;;;;;0.75;0.30;;;;;;;9.92;59.33;98720.16;5011648;28;20087;-49
2022/11/13 01:43:38;;;;;;;1.50;0.30;;;;;;;9.75;59.15;98702.78;5012305;28;20068;-50
2022/11/13 01:46:45;;;;;;;0.63;0.10;;;;;;;9.91;59.50;98708.09;5012270;28;20048;-51
2022/11/13 01:49:36;;;;;;;1.08;0.20;;;;;;;9.84;58.91;98711.91;5012549;28;20061;-47
2022/11/13 01:52:40;;;;;;;3.05;0.50;;;;;;;9.90;59.07;98721.97;5006074;28;20046;-50
2022/11/13 01:55:25;;;;;;;2.67;0.20;;;;;;;9.95;59.01;98717.41;5010626;28;20042;-45
2022/11/13 01:58:10;;;;;;;0.30;0.20;;;;;;;9.92;58.75;98725.38;5010985;28;20616;-48
2022/11/13 02:00:55;;;;;;;1.02;0.20;;;;;;;9.95;58.47;98727.81;5011087;28;20049;-46
2022/11/13 02:03:39;;;;;;;2.17;0.30;;;;;;;9.95;58.75;98717.41;5010257;28;20652;-45
2022/11/13 02:06:24;;;;;;;0.43;0.13;;;;;;;9.95;58.52;98713.06;5012011;28;20937;-47
2022/11/13 02:09:09;;;;;;;0.45;0.20;;;;;;;9.96;58.70;98714.75;5009887;28;20050;-49
2022/11/13 02:11:53;;;;;;;0.50;0.22;;;;;;;9.95;58.51;98714.81;5010864;28;20050;-51
2022/11/13 02:14:40;;;;;;;2.15;0.30;;;;;;;9.96;58.45;98699.19;5010104;28;20044;-48
2022/11/13 02:17:29;;;;;;;0.35;0.25;;;;;;;9.97;58.11;98687.88;5024415;28;20060;-48
2022/11/13 02:20:14;;;;;;;5.47;0.30;;;;;;;10.00;58.33;98685.13;4982749;28;20045;-46
2022/11/13 02:23:16;;;;;;;0.45;0.20;;;;;;;9.99;57.40;98701.66;5003600;28;20093;-52
2022/11/13 02:26:01;;;;;;;1.80;0.30;;;;;;;9.92;57.48;98695.06;5004809;28;20045;-55
2022/11/13 02:28:45;;;;;;;2.60;0.20;;;;;;;9.91;58.39;98700.31;4991997;28;20095;-51
2022/11/13 02:31:30;;;;;;;2.30;0.20;;;;;;;9.71;58.42;98673.53;4990958;28;20053;-50
2022/11/13 02:34:14;;;;;;;0.65;0.20;;;;;;;9.77;58.42;98711.34;5008149;28;20133;-53
2022/11/13 02:36:59;;;;;;;1.58;0.20;;;;;;;9.77;58.15;98690.59;5009921;28;20131;-51
2022/11/13 02:39:43;;;;;;;0.80;0.30;;;;;;;9.77;57.82;98686.25;5010643;28;20041;-49
2022/11/13 02:42:29;;;;;;;2.30;0.30;;;;;;;9.88;57.95;98687.47;5008686;28;20038;-49
2022/11/13 02:45:14;;;;;;;0.68;0.32;;;;;;;9.89;58.19;98686.56;5006462;28;20049;-48
2022/11/13 02:48:00;;;;;;;0.75;0.25;;;;;;;9.76;59.15;98681.94;5006445;28;20038;-47
2022/11/13 02:50:45;;;;;;;1.45;0.40;;;;;;;9.49;59.73;98653.84;5004291;28;20057;-49
2022/11/13 02:53:29;;;;;;;0.35;0.20;;;;;;;9.62;60.04;98684.38;4999238;28;20425;-46
2022/11/13 02:56:13;;;;;;;0.50;0.20;;;;;;;9.56;60.71;98678.59;5010932;28;20029;-49
2022/11/13 02:58:58;;;;;;;1.80;0.40;;;;;;;9.29;61.48;98642.66;5010360;28;20133;-50
2022/11/13 03:01:42;;;;;;;1.85;0.10;;;;;;;9.48;61.77;98660.78;5009543;28;20049;-52
2022/11/13 03:04:27;;;;;;;0.47;0.28;;;;;;;9.51;62.42;98673.63;5008410;28;20498;-49
2022/11/13 03:07:12;;;;;;;3.10;0.30;;;;;;;9.49;62.13;98669.41;5009500;28;20074;-51
2022/11/13 03:09:56;;;;;;;1.13;0.20;;;;;;;9.35;62.79;98677.84;4990992;28;20045;-49
2022/11/13 03:12:41;;;;;;;2.05;0.25;;;;;;;9.23;62.84;98652.44;4993262;28;20054;-45
2022/11/13 03:15:25;;;;;;;1.80;0.40;;;;;;;9.41;62.89;98669.78;5010600;28;20057;-47
2022/11/13 03:18:13;;;;;;;0.10;0.10;;;;;;;9.45;63.60;98679.09;5009703;28;20042;-49
2022/11/13 03:20:57;;;;;;;1.83;0.40;;;;;;;9.46;63.21;98683.38;5022763;28;20057;-47
2022/11/13 03:23:44;;;;;;;0.77;0.30;;;;;;;9.45;62.96;98683.44;4998172;28;20049;-46
2022/11/13 03:26:28;;;;;;;0.47;0.20;;;;;;;9.44;63.30;98676.56;4990752;28;20084;-47
2022/11/13 03:29:13;;;;;;;0.50;0.20;;;;;;;9.43;63.08;98675.72;4990839;28;20088;-49
2022/11/13 03:31:57;;;;;;;1.13;0.25;;;;;;;9.42;62.36;98689.59;5005093;28;20434;-46
2022/11/13 03:34:42;;;;;;;0.70;0.20;;;;;;;9.41;62.25;98674.97;5009003;28;20149;-48
2022/11/13 03:37:26;;;;;;;0.40;0.25;;;;;;;9.32;63.42;98657.22;5010154;28;20038;-46
2022/11/13 03:40:11;;;;;;;0.98;0.40;;;;;;;9.15;63.30;98655.41;4990701;28;20054;-46
2022/11/13 03:42:55;;;;;;;1.85;0.10;;;;;;;9.26;62.99;98670.47;4990524;28;20042;-47
2022/11/13 03:45:40;;;;;;;2.08;0.35;;;;;;;9.23;61.91;98683.56;4990256;28;20142;-48
2022/11/13 03:48:24;;;;;;;2.92;0.32;;;;;;;9.29;61.93;98678.97;4990435;28;20053;-46
2022/11/13 03:51:08;;;;;;;1.17;0.20;;;;;;;9.34;60.75;98694.31;4989615;28;20046;-47
2022/11/13 03:53:53;;;;;;;1.85;0.20;;;;;;;9.34;59.20;98682.19;4991002;28;20042;-49
2022/11/13 03:56:37;;;;;;;0.68;0.20;;;;;;;9.34;58.88;98668.38;4990326;28;20425;-47
2022/11/13 03:59:22;;;;;;;0.32;0.20;;;;;;;9.33;57.80;98669.28;4989164;28;20045;-50
2022/11/13 04:02:06;;;;;;;1.45;0.30;;;;;;;9.24;57.45;98664.50;5012295;28;20822;-48
2022/11/13 04:04:51;;;;;;;4.82;0.40;;;;;;;9.10;57.75;98651.34;5008027;28;20592;-47
2022/11/13 04:07:35;;;;;;;1.20;0.50;;;;;;;9.00;58.15;98658.69;5009862;28;20033;-50
2022/11/13 04:10:20;;;;;;;1.40;0.25;;;;;;;9.04;58.07;98687.91;4989977;28;20101;-45
2022/11/13 04:13:04;;;;;;;0.52;0.22;;;;;;;8.95;58.29;98667.56;4989458;28;20050;-47
2022/11/13 04:15:49;;;;;;;2.70;0.22;;;;;;;9.19;58.17;98695.00;5002784;28;20494;-46
2022/11/13 04:18:33;;;;;;;0.98;0.32;;;;;;;9.21;58.32;98704.38;4990076;28;20045;-46
2022/11/13 04:21:17;;;;;;;2.33;0.47;;;;;;;9.20;58.66;98700.13;4988625;28;20050;-47
2022/11/13 04:24:02;;;;;;;1.08;0.20;;;;;;;9.03;58.57;98679.28;5001817;28;20088;-46
2022/11/13 04:26:47;;;;;;;3.03;0.30;;;;;;;9.18;58.87;98717.50;5009539;28;20108;-45
2022/11/13 04:29:31;;;;;;;1.38;0.40;;;;;;;9.07;58.49;98688.59;5009559;28;20042;-45
2022/11/13 04:32:15;;;;;;;1.38;0.30;;;;;;;9.14;58.74;98710.75;5008311;28;20045;-47
2022/11/13 04:35:00;;;;;;;2.30;0.28;;;;;;;8.98;58.73;98704.56;5000349;28;20056;-45
2022/11/13 04:37:44;;;;;;;4.95;0.57;;;;;;;8.85;58.85;98690.44;5009109;28;20037;-45
2022/11/13 04:40:28;;;;;;;1.48;0.32;;;;;;;8.71;59.03;98696.22;4990287;28;20065;-49
2022/11/13 04:43:12;;;;;;;0.85;0.20;;;;;;;8.58;59.37;98717.53;5003122;28;20137;-46
2022/11/13 04:45:57;;;;;;;0.15;0.15;;;;;;;8.36;59.69;98677.00;4990273;28;20046;-46
2022/11/13 04:48:41;;;;;;;0.60;0.20;;;;;;;8.45;60.09;98706.81;5009159;28;20042;-49
2022/11/13 04:51:25;;;;;;;2.15;0.30;;;;;;;8.23;59.88;98664.56;5008773;28;20096;-47
2022/11/13 04:54:10;;;;;;;1.75;0.30;;;;;;;8.47;60.22;98687.75;4995825;28;20057;-46
2022/11/13 04:56:54;;;;;;;0.93;0.30;;;;;;;8.58;59.99;98712.34;5003024;28;20092;-56
2022/11/13 04:59:39;;;;;;;2.20;0.30;;;;;;;8.37;60.07;98690.78;4989102;28;20080;-45
2022/11/13 05:02:23;;;;;;;0.93;0.20;;;;;;;8.55;60.26;98728.00;4999017;28;20116;-46
2022/11/13 05:05:08;;;;;;;1.98;0.40;;;;;;;8.61;59.85;98709.63;4989070;28;20045;-49
2022/11/13 05:07:52;;;;;;;1.05;0.43;;;;;;;8.70;60.01;98717.84;4995191;28;20092;-48
2022/11/13 05:10:37;;;;;;;0.82;0.35;;;;;;;8.64;60.59;98670.63;5009435;28;20048;-49
2022/11/13 05:13:22;;;;;;;1.52;0.52;;;;;;;8.66;61.14;98710.28;5003471;28;20038;-49
2022/11/13 05:16:08;;;;;;;1.45;0.30;;;;;;;8.83;60.61;98741.50;5006534;28;20122;-47
2022/11/13 05:18:52;;;;;;;1.48;0.50;;;;;;;8.73;61.42;98714.31;4992611;28;20525;-45
2022/11/13 05:21:38;;;;;;;0.77;0.20;;;;;;;8.81;61.39;98738.13;4993455;28;20060;-49
2022/11/13 05:24:22;;;;;;;2.97;1.08;;;;;;;8.59;62.27;98711.44;5020317;28;20049;-47
2022/11/13 05:27:07;;;;;;;1.38;0.32;;;;;;;8.71;62.47;98750.63;5013043;28;20052;-49
2022/11/13 05:29:51;;;;;;;2.65;0.50;;;;;;;8.58;62.36;98765.00;5013026;28;20081;-47
2022/11/13 05:32:35;;;;;;;2.25;0.40;;;;;;;8.50;63.33;98761.88;5013107;28;20034;-48
2022/11/13 05:35:19;;;;;;;0.30;0.30;;;;;;;8.53;63.10;98746.19;5021484;28;20088;-45
2022/11/13 05:38:04;;;;;;;0.95;0.40;;;;;;;8.58;62.90;98751.22;5010252;28;20100;-47
2022/11/13 05:40:48;;;;;;;1.00;0.30;;;;;;;8.48;62.71;98730.00;4993271;28;20050;-51
2022/11/13 05:43:34;;;;;;;1.85;0.20;;;;;;;8.69;63.11;98747.25;4999295;28;20077;-50
2022/11/13 05:46:20;;;;;;;0.82;0.30;;;;;;;8.80;62.47;98767.53;5011498;28;20064;-48
2022/11/13 05:49:04;;;;;;;2.53;0.30;;;;;;;8.89;62.49;98780.13;5012719;28;20048;-51
2022/11/13 05:51:48;;;;;;;2.45;0.40;;;;;;;8.77;62.50;98758.16;5011583;28;20136;-48
2022/11/13 05:54:33;;;;;;;1.48;0.63;;;;;;;9.00;62.69;98816.81;4997661;28;20034;-48
2022/11/13 05:57:17;;;;;;;4.20;0.40;;;;;;;8.67;63.96;98794.88;4992866;28;20128;-47
2022/11/13 06:00:03;;;;;;;0.13;0.13;;;;;;;8.57;65.83;98815.13;4992909;28;20510;-52
2022/11/13 06:02:47;;;;;;;0.93;0.30;;;;;;;8.34;67.15;98828.13;5003699;28;20502;-49
2022/11/13 06:05:34;;;;;;;1.45;0.30;;;;;;;8.29;67.78;98810.16;5005569;28;20089;-49
2022/11/13 06:08:18;;;;;;;2.55;0.73;;;;;;;8.69;67.24;98829.34;5009629;28;20060;-48
2022/11/13 06:11:10;;;;;;;3.28;0.57;;;;;;;8.73;67.16;98854.22;4993065;28;20089;-50
2022/11/13 06:13:55;;;;;;;2.70;0.30;;;;;;;8.54;67.69;98850.66;5014258;28;20046;-52
2022/11/13 06:16:40;;;;;;;0.85;0.47;;;;;;;8.79;67.59;98865.16;5012141;28;20046;-47
2022/11/13 06:19:24;;;;;;;1.08;0.35;;;;;;;9.50;65.72;98835.41;5010640;28;20509;-50
2022/11/13 06:22:08;;;;;;;1.70;0.40;;;;;;;10.51;63.59;98855.06;5011908;28;20057;-47
2022/11/13 06:24:53;;;;;;;1.67;0.40;;;;;;;11.21;61.16;98859.41;4996665;28;20096;-50
2022/11/13 06:27:38;;;;;;;0.88;0.35;;;;;;;12.18;59.50;98868.22;5011368;28;21029;-51
2022/11/13 06:30:23;;;;;;;0.35;0.28;;;;;;;12.64;57.68;98852.66;5011945;28;20096;-47
2022/11/13 06:33:07;;;;;;;2.00;0.35;;;;;;;13.21;55.79;98863.34;5022735;28;20505;-51
2022/11/13 06:35:52;;;;;;;2.15;0.80;;;;;;;13.45;54.45;98860.13;5011348;28;20053;-52
2022/11/13 06:38:37;;;;;;;0.68;0.30;;;;;;;13.01;54.61;98887.97;4997723;28;20525;-50
2022/11/13 06:41:24;;;;;;;1.25;0.40;;;;;;;12.30;55.11;98905.81;4992152;28;20625;-50
2022/11/13 06:44:08;;;;;;;2.35;0.40;;;;;;;11.97;56.08;98903.25;5014363;28;20052;-48
2022/11/13 06:46:53;;;;;;;1.23;0.28;;;;;;;11.36;56.70;98879.47;5011569;28;20041;-48
2022/11/13 06:49:37;;;;;;;1.98;0.22;;;;;;;11.06;56.43;98887.03;5011348;28;20037;-48
2022/11/13 06:52:22;;;;;;;1.08;0.30;;;;;;;11.62;55.14;98919.81;5023593;28;20433;-50
2022/11/13 06:55:07;;;;;;;1.02;0.47;;;;;;;11.66;55.53;98929.16;5010254;28;20468;-51
2022/11/13 06:57:51;;;;;;;0.40;0.30;;;;;;;12.70;53.17;98927.97;5010433;28;20046;-45
2022/11/13 07:00:35;;;;;;;1.77;0.30;;;;;;;13.90;50.34;98927.09;4995909;28;20050;-49
2022/11/13 07:03:22;;;;;;;4.55;0.40;;;;;;;13.59;50.05;98919.41;5001010;28;20506;-49
2022/11/13 07:06:12;;;;;;;1.00;0.22;;;;;;;13.02;50.96;98932.25;4991485;28;20548;-48
2022/11/13 07:08:57;;;;;;;0.45;0.20;;;;;;;12.66;50.95;98911.66;5005440;28;20049;-45
2022/11/13 07:11:41;;;;;;;0.22;0.20;;;;;;;12.72;50.87;98944.34;5011030;28;20528;-49
2022/11/13 07:14:25;;;;;;;0.90;0.22;;;;;;;12.41;51.18;98944.31;4991889;28;20042;-55
2022/11/13 07:17:09;;;;;;;0.38;0.17;;;;;;;11.80;52.22;98951.00;4990285;28;20138;-49
2022/11/13 07:19:54;;;;;;;0.20;0.20;;;;;;;11.13;53.10;98913.59;4991379;28;20046;-51
2022/11/13 07:22:38;;;;;;;0.47;0.30;;;;;;;12.15;51.07;98915.28;4992685;28;20050;-49
2022/11/13 07:25:23;;;;;;;0.88;0.20;;;;;;;12.98;49.00;98935.09;5010736;28;20084;-47
2022/11/13 07:28:08;;;;;;;2.35;0.45;;;;;;;12.91;49.00;98950.25;5009603;28;20042;-51
2022/11/13 07:30:52;;;;;;;0.28;0.20;;;;;;;12.56;49.59;98957.38;5010762;28;20537;-45
2022/11/13 07:33:36;;;;;;;0.57;0.50;;;;;;;12.02;50.06;98927.28;4998213;28;20116;-51
2022/11/13 07:36:21;;;;;;;0.38;0.20;;;;;;;11.62;50.33;98927.63;5003951;28;20061;-49
2022/11/13 07:39:06;;;;;;;0.60;0.20;;;;;;;11.81;50.25;98928.41;4990254;28;20514;-52
2022/11/13 07:41:50;;;;;;;0.82;0.50;;;;;;;12.75;49.07;98938.97;5009726;28;20059;-52
2022/11/13 07:44:34;;;;;;;0.82;0.50;;;;;;;14.18;46.96;98947.19;5009104;28;20088;-49
2022/11/13 07:47:19;;;;;;;1.35;0.30;;;;;;;15.21;45.16;98948.53;5010705;28;20402;-47
2022/11/13 07:50:04;;;;;;;0.22;0.22;;;;;;;15.46;43.93;98952.16;5009070;28;20048;-46
2022/11/13 07:52:54;;;;;;;0.90;0.30;;;;;;;15.15;44.02;98945.47;5007783;28;20069;-47
2022/11/13 07:55:39;;;;;;;2.72;0.57;;;;;;;15.31;43.07;98947.91;5009290;28;20509;-51
2022/11/13 07:58:23;;;;;;;0.95;0.40;;;;;;;14.68;44.02;98949.34;4998852;28;20047;-49
2022/11/13 08:01:09;;;;;;;1.42;0.43;;;;;;;14.40;44.23;98938.88;5007744;28;20088;-51
2022/11/13 08:03:53;;;;;;;2.05;0.40;;;;;;;14.87;43.92;98942.91;5005910;28;20042;-53
2022/11/13 08:06:38;;;;;;;0.63;0.20;;;;;;;15.93;42.30;98964.75;4995223;28;20034;-50
2022/11/13 08:09:22;;;;;;;1.73;0.55;;;;;;;15.84;41.86;98974.06;5007685;28;20056;-46
2022/11/13 08:12:07;;;;;;;2.50;0.40;;;;;;;15.92;41.80;98956.03;5006377;28;20041;-49
2022/11/13 08:14:51;;;;;;;1.98;1.13;;;;;;;16.47;41.11;98971.47;5009126;28;20045;-48
2022/11/13 08:17:35;;;;;;;3.03;0.70;;;;;;;16.45;40.94;98977.75;5009957;28;20042;-46
2022/11/13 08:20:20;;;;;;;3.33;1.67;;;;;;;17.36;39.60;98982.56;5009453;28;20081;-48
2022/11/13 08:23:04;;;;;;;0.52;0.40;;;;;;;17.56;38.70;98964.47;4994112;28;20046;-47
2022/11/13 08:25:49;;;;;;;2.90;0.77;;;;;;;18.12;37.95;98982.13;5009574;28;20125;-50
2022/11/13 08:28:34;;;;;;;0.52;0.40;;;;;;;19.29;36.95;98972.00;5005690;28;20038;-53
2022/11/13 08:31:18;;;;;;;0.85;0.50;;;;;;;19.85;35.43;98983.19;5007339;28;20473;-48
2022/11/13 08:34:03;;;;;;;0.30;0.30;;;;;;;19.35;35.23;98940.72;5008466;28;20050;-47
2022/11/13 08:36:47;;;;;;;2.22;0.57;;;;;;;19.11;35.34;98981.38;4991864;28;20050;-48
2022/11/13 08:39:34;;;;;;;2.55;0.30;;;;;;;17.91;36.65;98993.41;5013227;28;20096;-45
2022/11/13 08:42:18;;;;;;;1.50;0.50;;;;;;;17.67;36.89;98988.22;5005934;28;20056;-48
2022/11/13 08:45:03;;;;;;;2.08;0.80;;;;;;;16.82;37.98;98991.78;5009204;28;20048;-52
2022/11/13 08:47:47;;;;;;;0.50;0.40;;;;;;;16.05;39.67;98967.38;5006494;28;20037;-50
2022/11/13 08:50:33;;;;;;;0.65;0.30;;;;;;;16.11;39.38;98989.72;5010492;28;20138;-47
2022/11/13 08:53:17;;;;;;;1.33;0.77;;;;;;;15.43;40.35;98974.16;5003659;28;20056;-51
2022/11/13 08:56:02;;;;;;;1.05;0.60;;;;;;;15.09;41.19;98998.22;5011925;28;20710;-51
2022/11/13 08:58:46;;;;;;;3.10;1.20;;;;;;;14.74;42.12;98984.75;5011174;28;20045;-45
2022/11/13 09:01:31;;;;;;;3.10;0.70;;;;;;;14.70;42.55;98991.94;5012115;28;20060;-48
2022/11/13 09:04:15;;;;;;;2.10;0.40;;;;;;;14.60;42.84;99001.28;5011412;28;20033;-49
2022/11/13 09:07:00;;;;;;;2.50;0.60;;;;;;;14.44;42.96;98978.78;5018799;28;20541;-49
2022/11/13 09:09:44;;;;;;;0.57;0.50;;;;;;;14.94;42.60;98994.78;5012203;28;20052;-46
2022/11/13 09:12:29;;;;;;;1.45;0.30;;;;;;;15.48;41.71;98987.81;5007427;28;20468;-46
2022/11/13 09:15:13;;;;;;;0.75;0.40;;;;;;;14.92;42.27;99001.88;5007645;28;20049;-46
2022/11/13 09:17:59;;;;;;;3.58;0.90;;;;;;;14.38;43.02;99012.22;5010771;28;20402;-51
2022/11/13 09:20:44;;;;;;;1.58;0.65;;;;;;;14.02;43.57;99006.56;5006315;28;20048;-47
2022/11/13 09:23:28;;;;;;;2.17;0.50;;;;;;;14.72;42.82;98987.44;5023867;28;20050;-46
2022/11/13 09:26:13;;;;;;;3.83;0.65;;;;;;;14.96;42.20;99024.34;5005106;28;20042;-45
2022/11/13 09:28:57;;;;;;;0.52;0.32;;;;;;;14.34;43.09;99015.91;5011117;28;20041;-45
2022/11/13 09:31:41;;;;;;;0.60;0.30;;;;;;;13.75;43.86;99019.47;5012453;28;20053;-45
2022/11/13 09:34:26;;;;;;;1.25;0.30;;;;;;;13.44;44.54;99004.69;5012057;28;20505;-47
2022/11/13 09:37:10;;;;;;;1.23;0.65;;;;;;;13.11;44.96;99012.66;5007900;28;20108;-47
2022/11/13 09:39:55;;;;;;;3.67;0.75;;;;;;;13.04;45.40;99023.47;4994110;28;20041;-46
2022/11/13 09:42:40;;;;;;;2.55;0.35;;;;;;;12.85;45.69;99025.41;5009389;28;20034;-45
2022/11/13 09:45:25;;;;;;;3.80;0.30;;;;;;;12.67;46.01;99041.09;5010293;28;20412;-46
2022/11/13 09:48:22;;;;;;;2.08;0.20;;;;;;;12.22;46.52;99033.94;5008812;28;20049;-46
2022/11/13 09:51:20;;;;;;;0.63;0.30;;;;;;;12.09;46.48;99048.47;5010882;28;20042;-47
2022/11/13 09:54:14;;;;;;;0.38;0.20;;;;;;;11.74;46.95;99016.41;5010463;28;20472;-47
2022/11/13 09:57:10;;;;;;;1.10;0.20;;;;;;;11.88;46.85;99062.59;5014562;28;20132;-46
2022/11/13 09:59:55;;;;;;;0.73;0.40;;;;;;;11.75;47.62;99070.16;5006265;28;20157;-45
2022/11/13 10:03:11;;;;;;;0.50;0.30;;;;;;;11.62;47.98;99083.84;5015797;28;20057;-48
2022/11/13 10:06:13;;;;;;;0.20;0.20;;;;;;;11.31;49.25;99090.47;5015053;28;20127;-45
2022/11/13 10:09:03;;;;;;;0.75;0.40;;;;;;;10.89;50.82;99088.09;5025806;28;20044;-44
2022/11/13 10:11:54;;;;;;;0.32;0.30;;;;;;;10.62;51.75;99105.75;5020359;28;20047;-46
2022/11/13 10:14:44;;;;;;;0.47;0.22;;;;;;;10.32;52.30;99112.28;5009021;28;20049;-50
2022/11/13 10:17:40;;;;;;;1.92;0.80;;;;;;;9.93;53.12;99111.31;5012976;28;20123;-48
2022/11/13 10:20:33;;;;;;;2.35;0.88;;;;;;;9.72;53.44;99115.63;5009594;28;20049;-45
2022/11/13 10:23:21;;;;;;;1.65;0.47;;;;;;;9.56;54.30;99130.09;5006831;28;20049;-47
2022/11/13 10:26:19;;;;;;;5.03;0.60;;;;;;;9.56;54.56;99128.34;5014904;28;20432;-46
2022/11/13 10:29:11;;;;;;;0.90;0.45;;;;;;;9.89;54.58;99133.94;5018784;28;20041;-46
2022/11/13 10:31:57;;;;;;;3.42;0.77;;;;;;;11.10;52.44;99135.69;5013218;28;20049;-43
2022/11/13 10:34:44;;;;;;;1.08;0.40;;;;;;;11.37;51.08;99133.59;5010410;28;20052;-41
2022/11/13 10:37:39;;;;;;;0.25;0.20;;;;;;;11.37;50.41;99137.03;4996915;28;20528;-44
2022/11/13 10:40:25;;;;;;;5.00;1.30;;;;;;;11.32;50.12;99151.19;5023458;28;20046;-46
2022/11/13 10:43:22;;;;;;;3.03;0.77;;;;;;;11.53;50.37;99149.34;5015373;28;20445;-47
2022/11/13 10:46:19;;;;;;;0.47;0.30;;;;;;;11.34;49.89;99154.56;5012745;28;20045;-46
2022/11/13 10:49:21;;;;;;;0.77;0.52;;;;;;;12.08;49.02;99145.00;5009932;28;20042;-45
2022/11/13 10:52:20;;;;;;;1.85;0.50;;;;;;;13.59;45.93;99162.31;5012844;28;20042;-47
2022/11/13 10:55:21;;;;;;;0.50;0.32;;;;;;;12.82;47.00;99159.47;5023323;28;20038;-44
2022/11/13 10:58:15;;;;;;;2.30;0.50;;;;;;;14.71;43.62;99171.53;5020412;28;20045;-48
2022/11/13 11:00:59;;;;;;;4.30;0.60;;;;;;;16.59;40.98;99157.91;4994977;28;20037;-46
2022/11/13 11:03:50;;;;;;;0.80;0.60;;;;;;;17.79;38.59;99164.28;5015832;28;20046;-45
2022/11/13 11:06:36;;;;;;;4.05;0.80;;;;;;;18.26;36.68;99146.00;5004658;28;20100;-47
2022/11/13 11:09:26;;;;;;;4.25;0.70;;;;;;;18.75;35.95;99172.97;5013548;28;20090;-45
2022/11/13 11:12:17;;;;;;;0.95;0.70;;;;;;;19.25;35.38;99170.91;5012392;28;20168;-48
2022/11/13 11:15:24;;;;;;;1.52;0.90;;;;;;;19.75;34.80;99174.84;5015914;28;20112;-48
2022/11/13 11:18:35;;;;;;;1.05;0.60;;;;;;;20.02;34.04;99167.34;4986213;28;20037;-44
2022/11/13 11:21:23;;;;;;;1.20;0.60;;;;;;;20.16;33.73;99174.13;5014733;28;20057;-49
2022/11/13 11:24:14;;;;;;;2.17;0.75;;;;;;;20.38;33.23;99182.00;5037285;28;20037;-48
2022/11/13 11:27:04;;;;;;;0.98;0.30;;;;;;;18.87;34.86;99184.38;5012418;28;20060;-50
2022/11/13 11:30:11;;;;;;;0.73;0.50;;;;;;;17.35;36.59;99172.69;5010853;28;20042;-44
2022/11/13 11:33:13;;;;;;;1.92;0.35;;;;;;;16.62;37.41;99194.44;5021316;28;20050;-44
2022/11/13 11:36:16;;;;;;;1.90;0.32;;;;;;;15.62;38.84;99188.69;5011240;28;20500;-48
2022/11/13 11:39:18;;;;;;;1.58;0.30;;;;;;;14.66;40.01;99199.75;5023994;28;20525;-47
2022/11/13 11:42:16;;;;;;;1.75;0.40;;;;;;;14.63;40.59;99191.25;5003117;28;20042;-45
2022/11/13 11:45:46;;;;;;;2.13;0.40;;;;;;;15.25;39.58;99196.19;5016402;28;20044;-43
2022/11/13 11:48:32;;;;;;;4.38;0.40;;;;;;;15.57;39.13;99206.47;5001834;28;20550;-47
2022/11/13 11:51:25;;;;;;;1.27;0.43;;;;;;;15.43;39.70;99219.56;5014581;28;20041;-51
2022/11/13 11:54:33;;;;;;;4.93;0.82;;;;;;;14.36;41.15;99228.53;5012514;28;20045;-49
2022/11/13 11:57:20;;;;;;;0.40;0.40;;;;;;;13.42;42.92;99231.09;5014700;28;20087;-48
2022/11/13 12:00:11;;;;;;;1.63;0.52;;;;;;;12.80;44.20;99230.88;5006313;28;20308;-43
2022/11/13 12:03:14;;;;;;;1.60;0.60;;;;;;;12.08;45.29;99224.00;4993705;28;20045;-46
2022/11/13 12:06:05;;;;;;;3.10;0.50;;;;;;;11.43;46.66;99235.66;5010130;28;20042;-48
2022/11/13 12:08:59;;;;;;;0.50;0.40;;;;;;;10.99;47.37;99242.81;5023741;28;20065;-41
2022/11/13 12:12:26;;;;;;;5.82;1.00;;;;;;;10.99;48.28;99250.63;4990035;28;20065;-51
2022/11/13 12:15:19;;;;;;;3.08;0.57;;;;;;;10.75;48.77;99243.88;4992798;28;20045;-44
2022/11/13 12:18:24;;;;;;;0.80;0.50;;;;;;;10.69;49.12;99258.88;5007205;28;20532;-43
2022/11/13 12:21:35;;;;;;;2.10;0.40;;;;;;;10.55;49.43;99268.09;5019404;28;20112;-47
2022/11/13 12:24:38;;;;;;;3.20;0.90;;;;;;;10.36;50.11;99272.34;5019254;28;20049;-43
2022/11/13 12:27:41;;;;;;;2.42;0.38;;;;;;;10.18;50.61;99265.28;5019030;28;20041;-50
2022/11/13 12:30:35;;;;;;;3.63;0.80;;;;;;;9.90;51.52;99272.41;5011308;28;20124;-47
2022/11/13 12:33:38;;;;;;;3.78;1.17;;;;;;;9.83;52.13;99276.16;5010211;28;20152;-49
2022/11/13 12:36:23;;;;;;;2.05;0.60;;;;;;;9.75;52.66;99295.44;5012872;28;20042;-45
2022/11/13 12:39:26;;;;;;;2.55;0.52;;;;;;;9.45;52.86;99268.03;5013774;28;20034;-46
2022/11/13 12:42:17;;;;;;;3.45;0.68;;;;;;;9.35;53.38;99314.22;5008301;28;20050;-47
2022/11/13 12:45:08;;;;;;;0.40;0.20;;;;;;;9.13;54.02;99310.66;5020895;28;20041;-48
2022/11/13 12:47:53;;;;;;;1.40;0.43;;;;;;;8.99;54.42;99315.50;5007987;28;20065;-46
2022/11/13 12:50:37;;;;;;;2.85;0.60;;;;;;;8.90;54.61;99324.41;5007523;28;20042;-50
2022/11/13 12:53:28;;;;;;;4.25;0.32;;;;;;;8.74;55.40;99328.41;4983905;28;20536;-50
2022/11/13 12:56:25;;;;;;;0.88;0.22;;;;;;;8.62;55.51;99323.63;4992423;28;20057;-49
2022/11/13 12:59:19;;;;;;;3.45;0.35;;;;;;;8.54;55.85;99341.16;5020108;28;20030;-50
2022/11/13 13:02:06;;;;;;;2.10;0.40;;;;;;;8.46;56.14;99325.00;5019627;28;20048;-46
2022/11/13 13:05:07;;;;;;;7.07;1.00;;;;;;;8.38;56.53;99337.34;5007724;28;20046;-50
2022/11/13 13:08:04;;;;;;;3.40;0.60;;;;;;;8.19;56.75;99336.19;5006858;28;20049;-45
2022/11/13 13:10:55;;;;;;;0.50;0.32;;;;;;;8.12;57.24;99364.00;5008227;28;20045;-49
2022/11/13 13:13:46;;;;;;;2.95;0.50;;;;;;;7.99;57.94;99362.66;5006198;28;20046;-49